^^
Station Historical Data
Daily Summary for March 17, 2017 Units:  Both    English   Metric
« Previous Day
Next Day »
Daily Weekly Monthly Yearly Custom
  High: Low: Average:
Temperature: 84.9 °F /  29.4 °C 59.0 °F /  15 °C 70.5 °F /  21.4 °C
Dew Point: 57.6 °F /  14.2 °C 49.6 °F /  9.8 °C 55.2 °F /  12.9 °C
Humidity: 89% 33% 62%
Wind Speed: 14.1mph /  22.7km/h - 1.4mph /  2.3km/h
Wind Gust: 14.1mph /  22.7km/h - -
Wind- - ESE
Pressure: 29.89 in /  1012.1 hPa 29.75 in /  1007.3 hPa -
Precipitation: 0.00 in /  0 mm    
Historical Graphs
 
 
Tabular Data for March 17, 2017
Time Temperature Dew Point Pressure Wind Wind Speed Wind Gust Humidity Rainfall Rate (Hourly) solar Conditions
00:00 67.6 °F /  19.8 °C 56.7 °F /  13.7 °C 29.80in /  1009hPa North 2.0mph /  3.2km/h 4.0mph /  6.4km/h 68% 0.00in /  0mm 0.0 W/m2
00:06 67.6 °F /  19.8 °C 56.7 °F /  13.7 °C 29.80in /  1009hPa Calm   1.0mph /  1.6km/h 68% 0.00in /  0mm 0.0 W/m2
00:12 67.5 °F /  19.7 °C 56.5 °F /  13.6 °C 29.79in /  1008.7hPa Calm   1.0mph /  1.6km/h 68% 0.00in /  0mm 0.0 W/m2
00:18 67.1 °F /  19.5 °C 56.7 °F /  13.7 °C 29.79in /  1008.7hPa Calm     69% 0.00in /  0mm 0.0 W/m2
00:24 66.9 °F /  19.4 °C 56.8 °F /  13.8 °C 29.79in /  1008.7hPa Calm     70% 0.00in /  0mm 0.0 W/m2
00:31 66.6 °F /  19.2 °C 56.8 °F /  13.8 °C 29.79in /  1008.7hPa Calm     71% 0.00in /  0mm 0.0 W/m2
00:37 66.2 °F /  19 °C 56.8 °F /  13.8 °C 29.79in /  1008.7hPa Calm     72% 0.00in /  0mm 0.0 W/m2
00:43 65.8 °F /  18.8 °C 57.0 °F /  13.9 °C 29.79in /  1008.7hPa Calm     73% 0.00in /  0mm 0.0 W/m2
00:49 65.7 °F /  18.7 °C 56.8 °F /  13.8 °C 29.79in /  1008.7hPa Calm   2.0mph /  3.2km/h 73% 0.00in /  0mm 0.0 W/m2
00:55 65.5 °F /  18.6 °C 57.0 °F /  13.9 °C 29.79in /  1008.7hPa Calm     74% 0.00in /  0mm 0.0 W/m2
01:01 65.1 °F /  18.4 °C 57.0 °F /  13.9 °C 29.78in /  1008.4hPa Calm     75% 0.00in /  0mm 0.0 W/m2
01:07 64.8 °F /  18.2 °C 56.7 °F /  13.7 °C 29.78in /  1008.4hPa Calm     75% 0.00in /  0mm 0.0 W/m2
01:13 64.6 °F /  18.1 °C 56.8 °F /  13.8 °C 29.78in /  1008.4hPa Calm     76% 0.00in /  0mm 0.0 W/m2
01:19 64.2 °F /  17.9 °C 56.8 °F /  13.8 °C 29.78in /  1008.4hPa Calm     77% 0.00in /  0mm 0.0 W/m2
01:26 63.9 °F /  17.7 °C 56.8 °F /  13.8 °C 29.78in /  1008.4hPa Calm     78% 0.00in /  0mm 0.0 W/m2
01:32 63.7 °F /  17.6 °C 56.7 °F /  13.7 °C 29.78in /  1008.4hPa Calm     78% 0.00in /  0mm 0.0 W/m2
01:38 63.5 °F /  17.5 °C 56.8 °F /  13.8 °C 29.78in /  1008.4hPa Calm     79% 0.00in /  0mm 0.0 W/m2
01:44 63.1 °F /  17.3 °C 56.5 °F /  13.6 °C 29.78in /  1008.4hPa Calm     79% 0.00in /  0mm 0.0 W/m2
01:50 63.0 °F /  17.2 °C 56.7 °F /  13.7 °C 29.78in /  1008.4hPa Calm     80% 0.00in /  0mm 0.0 W/m2
01:56 62.8 °F /  17.1 °C 56.8 °F /  13.8 °C 29.77in /  1008hPa Calm     81% 0.00in /  0mm 0.0 W/m2
02:03 62.6 °F /  17 °C 56.7 °F /  13.7 °C 29.77in /  1008hPa Calm     81% 0.00in /  0mm 0.0 W/m2
02:09 62.4 °F /  16.9 °C 56.5 °F /  13.6 °C 29.77in /  1008hPa Calm     81% 0.00in /  0mm 0.0 W/m2
02:15 62.2 °F /  16.8 °C 56.3 °F /  13.5 °C 29.77in /  1008hPa Calm     81% 0.00in /  0mm 0.0 W/m2
02:21 62.1 °F /  16.7 °C 56.5 °F /  13.6 °C 29.77in /  1008hPa Calm   1.0mph /  1.6km/h 82% 0.00in /  0mm 0.0 W/m2
02:27 61.9 °F /  16.6 °C 56.7 °F /  13.7 °C 29.77in /  1008hPa Calm     83% 0.00in /  0mm 0.0 W/m2
02:33 61.7 °F /  16.5 °C 56.5 °F /  13.6 °C 29.77in /  1008hPa Calm     83% 0.00in /  0mm 0.0 W/m2
02:39 61.5 °F /  16.4 °C 56.3 °F /  13.5 °C 29.76in /  1007.7hPa Calm     83% 0.00in /  0mm 0.0 W/m2
02:45 61.5 °F /  16.4 °C 56.7 °F /  13.7 °C 29.76in /  1007.7hPa Calm     84% 0.00in /  0mm 0.0 W/m2
02:51 61.3 °F /  16.3 °C 56.5 °F /  13.6 °C 29.76in /  1007.7hPa Calm     84% 0.00in /  0mm 0.0 W/m2
02:58 61.3 °F /  16.3 °C 56.5 °F /  13.6 °C 29.76in /  1007.7hPa Calm     84% 0.00in /  0mm 0.0 W/m2
03:04 61.2 °F /  16.2 °C 56.3 °F /  13.5 °C 29.76in /  1007.7hPa Calm     84% 0.00in /  0mm 0.0 W/m2
03:10 61.0 °F /  16.1 °C 56.5 °F /  13.6 °C 29.76in /  1007.7hPa Calm     85% 0.00in /  0mm 0.0 W/m2
03:16 61.0 °F /  16.1 °C 56.5 °F /  13.6 °C 29.76in /  1007.7hPa Calm     85% 0.00in /  0mm 0.0 W/m2
03:22 60.8 °F /  16 °C 56.7 °F /  13.7 °C 29.76in /  1007.7hPa Calm     86% 0.00in /  0mm 0.0 W/m2
03:28 60.6 °F /  15.9 °C 56.5 °F /  13.6 °C 29.76in /  1007.7hPa Calm     86% 0.00in /  0mm 0.0 W/m2
03:34 60.6 °F /  15.9 °C 56.5 °F /  13.6 °C 29.76in /  1007.7hPa Calm     86% 0.00in /  0mm 0.0 W/m2
03:41 60.6 °F /  15.9 °C 56.5 °F /  13.6 °C 29.75in /  1007.3hPa Calm     86% 0.00in /  0mm 0.0 W/m2
03:47 60.4 °F /  15.8 °C 56.3 °F /  13.5 °C 29.75in /  1007.3hPa Calm     86% 0.00in /  0mm 0.0 W/m2
03:53 60.4 °F /  15.8 °C 56.5 °F /  13.6 °C 29.75in /  1007.3hPa Calm     87% 0.00in /  0mm 0.0 W/m2
03:59 60.3 °F /  15.7 °C 56.3 °F /  13.5 °C 29.75in /  1007.3hPa Calm     87% 0.00in /  0mm 0.0 W/m2
04:05 60.3 °F /  15.7 °C 56.3 °F /  13.5 °C 29.75in /  1007.3hPa Calm     87% 0.00in /  0mm 0.0 W/m2
04:11 60.3 °F /  15.7 °C 56.3 °F /  13.5 °C 29.75in /  1007.3hPa Calm   1.0mph /  1.6km/h 87% 0.00in /  0mm 0.0 W/m2
04:17 60.1 °F /  15.6 °C 56.1 °F /  13.4 °C 29.75in /  1007.3hPa Calm     87% 0.00in /  0mm 0.0 W/m2
04:23 60.1 °F /  15.6 °C 56.1 °F /  13.4 °C 29.75in /  1007.3hPa Calm   1.0mph /  1.6km/h 87% 0.00in /  0mm 0.0 W/m2
04:30 59.9 °F /  15.5 °C 55.9 °F /  13.3 °C 29.75in /  1007.3hPa Calm   1.0mph /  1.6km/h 87% 0.00in /  0mm 0.0 W/m2
04:36 59.7 °F /  15.4 °C 56.1 °F /  13.4 °C 29.75in /  1007.3hPa Calm   1.0mph /  1.6km/h 88% 0.00in /  0mm 0.0 W/m2
04:42 59.7 °F /  15.4 °C 56.1 °F /  13.4 °C 29.75in /  1007.3hPa Calm   1.0mph /  1.6km/h 88% 0.00in /  0mm 0.0 W/m2
04:48 59.5 °F /  15.3 °C 55.9 °F /  13.3 °C 29.75in /  1007.3hPa ENE 2.0mph /  3.2km/h 2.0mph /  3.2km/h 88% 0.00in /  0mm 0.0 W/m2
04:54 59.5 °F /  15.3 °C 55.9 °F /  13.3 °C 29.75in /  1007.3hPa Calm   1.0mph /  1.6km/h 88% 0.00in /  0mm 0.0 W/m2
05:00 59.5 °F /  15.3 °C 55.9 °F /  13.3 °C 29.75in /  1007.3hPa Calm   3.0mph /  4.8km/h 88% 0.00in /  0mm 0.0 W/m2
05:06 59.4 °F /  15.2 °C 56.1 °F /  13.4 °C 29.76in /  1007.7hPa Calm     89% 0.00in /  0mm 0.0 W/m2
05:13 59.4 °F /  15.2 °C 56.1 °F /  13.4 °C 29.76in /  1007.7hPa Calm     89% 0.00in /  0mm 0.0 W/m2
05:19 59.4 °F /  15.2 °C 56.1 °F /  13.4 °C 29.76in /  1007.7hPa Calm     89% 0.00in /  0mm 0.0 W/m2
05:25 59.4 °F /  15.2 °C 56.1 °F /  13.4 °C 29.76in /  1007.7hPa ENE 0.9mph /  1.4km/h 2.0mph /  3.2km/h 89% 0.00in /  0mm 0.0 W/m2
05:31 59.4 °F /  15.2 °C 56.1 °F /  13.4 °C 29.77in /  1008hPa Calm   3.0mph /  4.8km/h 89% 0.00in /  0mm 0.0 W/m2
05:37 59.4 °F /  15.2 °C 55.8 °F /  13.2 °C 29.77in /  1008hPa East 2.0mph /  3.2km/h 2.0mph /  3.2km/h 88% 0.00in /  0mm 0.0 W/m2
05:43 59.4 °F /  15.2 °C 55.8 °F /  13.2 °C 29.77in /  1008hPa ESE 2.0mph /  3.2km/h 3.0mph /  4.8km/h 88% 0.00in /  0mm 0.0 W/m2
05:49 59.2 °F /  15.1 °C 55.6 °F /  13.1 °C 29.77in /  1008hPa ENE 0.9mph /  1.4km/h 2.0mph /  3.2km/h 88% 0.00in /  0mm 0.0 W/m2
05:56 59.2 °F /  15.1 °C 55.6 °F /  13.1 °C 29.77in /  1008hPa Calm     88% 0.00in /  0mm 0.0 W/m2
06:02 59.2 °F /  15.1 °C 55.6 °F /  13.1 °C 29.77in /  1008hPa Calm     88% 0.00in /  0mm 0.0 W/m2
06:08 59.2 °F /  15.1 °C 55.6 °F /  13.1 °C 29.77in /  1008hPa Calm     88% 0.00in /  0mm 0.0 W/m2
06:14 59.2 °F /  15.1 °C 55.6 °F /  13.1 °C 29.78in /  1008.4hPa Calm     88% 0.00in /  0mm 0.0 W/m2
06:20 59.2 °F /  15.1 °C 55.6 °F /  13.1 °C 29.78in /  1008.4hPa Calm     88% 0.00in /  0mm 0.0 W/m2
06:26 59.2 °F /  15.1 °C 55.6 °F /  13.1 °C 29.78in /  1008.4hPa ESE 0.9mph /  1.4km/h 1.0mph /  1.6km/h 88% 0.00in /  0mm 0.0 W/m2
06:32 59.0 °F /  15 °C 55.4 °F /  13 °C 29.78in /  1008.4hPa East 0.9mph /  1.4km/h 3.0mph /  4.8km/h 88% 0.00in /  0mm 0.0 W/m2
06:38 59.0 °F /  15 °C 55.4 °F /  13 °C 29.78in /  1008.4hPa Calm   3.0mph /  4.8km/h 88% 0.00in /  0mm 0.0 W/m2
06:45 59.0 °F /  15 °C 55.4 °F /  13 °C 29.78in /  1008.4hPa East 0.9mph /  1.4km/h 2.0mph /  3.2km/h 88% 0.00in /  0mm 0.0 W/m2
06:51 59.0 °F /  15 °C 55.4 °F /  13 °C 29.78in /  1008.4hPa ENE 0.9mph /  1.4km/h 3.0mph /  4.8km/h 88% 0.00in /  0mm 0.0 W/m2
06:57 59.0 °F /  15 °C 55.4 °F /  13 °C 29.78in /  1008.4hPa NE 2.0mph /  3.2km/h 5.0mph /  8km/h 88% 0.00in /  0mm 5.0 W/m2
07:03 59.2 °F /  15.1 °C 55.6 °F /  13.1 °C 29.78in /  1008.4hPa ENE 2.9mph /  4.7km/h 3.0mph /  4.8km/h 88% 0.00in /  0mm 7.0 W/m2
07:09 59.2 °F /  15.1 °C 55.6 °F /  13.1 °C 29.79in /  1008.7hPa NE 4.0mph /  6.4km/h 4.0mph /  6.4km/h 88% 0.00in /  0mm 9.0 W/m2
07:15 59.4 °F /  15.2 °C 55.4 °F /  13 °C 29.79in /  1008.7hPa Calm   3.0mph /  4.8km/h 87% 0.00in /  0mm 12.0 W/m2
07:21 59.4 °F /  15.2 °C 55.4 °F /  13 °C 29.80in /  1009hPa Calm   4.0mph /  6.4km/h 87% 0.00in /  0mm 14.0 W/m2
07:28 59.7 °F /  15.4 °C 55.8 °F /  13.2 °C 29.80in /  1009hPa Calm   3.0mph /  4.8km/h 87% 0.00in /  0mm 16.0 W/m2
07:34 59.9 °F /  15.5 °C 55.9 °F /  13.3 °C 29.80in /  1009hPa East 2.9mph /  4.7km/h 4.0mph /  6.4km/h 87% 0.00in /  0mm 18.0 W/m2
07:40 60.1 °F /  15.6 °C 55.9 °F /  13.3 °C 29.80in /  1009hPa ENE 0.9mph /  1.4km/h 3.0mph /  4.8km/h 86% 0.00in /  0mm 19.0 W/m2
07:46 60.4 °F /  15.8 °C 56.3 °F /  13.5 °C 29.81in /  1009.4hPa Calm   2.0mph /  3.2km/h 86% 0.00in /  0mm 19.0 W/m2
07:52 60.6 °F /  15.9 °C 56.1 °F /  13.4 °C 29.81in /  1009.4hPa Calm   2.0mph /  3.2km/h 85% 0.00in /  0mm 23.0 W/m2
07:58 61.0 °F /  16.1 °C 56.1 °F /  13.4 °C 29.81in /  1009.4hPa Calm     84% 0.00in /  0mm 26.0 W/m2
08:04 61.0 °F /  16.1 °C 56.1 °F /  13.4 °C 29.81in /  1009.4hPa Calm     84% 0.00in /  0mm 32.0 W/m2
08:11 61.2 °F /  16.2 °C 56.7 °F /  13.7 °C 29.82in /  1009.7hPa Calm     85% 0.00in /  0mm 35.0 W/m2
08:17 61.5 °F /  16.4 °C 56.3 °F /  13.5 °C 29.82in /  1009.7hPa Calm   1.0mph /  1.6km/h 83% 0.00in /  0mm 37.0 W/m2
08:23 62.1 °F /  16.7 °C 56.1 °F /  13.4 °C 29.82in /  1009.7hPa Calm     81% 0.00in /  0mm 35.0 W/m2
08:29 63.0 °F /  17.2 °C 55.9 °F /  13.3 °C 29.82in /  1009.7hPa Calm     78% 0.00in /  0mm 35.0 W/m2
08:35 63.9 °F /  17.7 °C 55.8 °F /  13.2 °C 29.83in /  1010hPa Calm   1.0mph /  1.6km/h 75% 0.00in /  0mm 37.0 W/m2
08:41 64.8 °F /  18.2 °C 55.9 °F /  13.3 °C 29.83in /  1010hPa Calm     73% 0.00in /  0mm 39.0 W/m2
08:47 65.5 °F /  18.6 °C 55.8 °F /  13.2 °C 29.83in /  1010hPa ENE 2.0mph /  3.2km/h 4.0mph /  6.4km/h 71% 0.00in /  0mm 39.0 W/m2
08:53 66.7 °F /  19.3 °C 55.8 °F /  13.2 °C 29.83in /  1010hPa ENE 2.0mph /  3.2km/h 4.0mph /  6.4km/h 68% 0.00in /  0mm 40.0 W/m2
08:59 67.8 °F /  19.9 °C 56.1 °F /  13.4 °C 29.83in /  1010hPa North 4.9mph /  7.9km/h 5.0mph /  8km/h 66% 0.00in /  0mm 44.0 W/m2
09:06 68.7 °F /  20.4 °C 56.1 °F /  13.4 °C 29.84in /  1010.4hPa NNE 4.0mph /  6.4km/h 6.0mph /  9.7km/h 64% 0.00in /  0mm 47.0 W/m2
09:12 69.4 °F /  20.8 °C 56.3 °F /  13.5 °C 29.84in /  1010.4hPa West 0.9mph /  1.4km/h 3.0mph /  4.8km/h 63% 0.00in /  0mm 58.0 W/m2
09:18 70.2 °F /  21.2 °C 56.5 °F /  13.6 °C 29.84in /  1010.4hPa Calm   2.0mph /  3.2km/h 62% 0.00in /  0mm 69.0 W/m2
09:24 70.5 °F /  21.4 °C 56.5 °F /  13.6 °C 29.84in /  1010.4hPa NNW 2.9mph /  4.7km/h 5.0mph /  8km/h 61% 0.00in /  0mm 91.0 W/m2
09:30 71.2 °F /  21.8 °C 55.8 °F /  13.2 °C 29.84in /  1010.4hPa NW 2.0mph /  3.2km/h 5.0mph /  8km/h 58% 0.00in /  0mm 102.0 W/m2
09:36 72.0 °F /  22.2 °C 55.9 °F /  13.3 °C 29.84in /  1010.4hPa NNE 0.9mph /  1.4km/h 5.0mph /  8km/h 57% 0.00in /  0mm 116.0 W/m2
09:43 72.3 °F /  22.4 °C 56.3 °F /  13.5 °C 29.84in /  1010.4hPa NNE 4.0mph /  6.4km/h 6.0mph /  9.7km/h 57% 0.00in /  0mm 158.0 W/m2
09:49 72.9 °F /  22.7 °C 56.3 °F /  13.5 °C 29.84in /  1010.4hPa ENE 2.9mph /  4.7km/h 8.0mph /  12.9km/h 56% 0.00in /  0mm 178.0 W/m2
09:55 73.2 °F /  22.9 °C 56.1 °F /  13.4 °C 29.84in /  1010.4hPa NNE 2.0mph /  3.2km/h 5.0mph /  8km/h 55% 0.00in /  0mm 666.0 W/m2
10:01 74.1 °F /  23.4 °C 56.5 °F /  13.6 °C 29.84in /  1010.4hPa NE 0.9mph /  1.4km/h 10.0mph /  16.1km/h 54% 0.00in /  0mm 700.0 W/m2
10:07 75.0 °F /  23.9 °C 56.1 °F /  13.4 °C 29.84in /  1010.4hPa NNE 4.9mph /  7.9km/h 6.0mph /  9.7km/h 52% 0.00in /  0mm 682.0 W/m2
10:13 75.9 °F /  24.4 °C 56.5 °F /  13.6 °C 29.84in /  1010.4hPa NE 2.0mph /  3.2km/h 6.0mph /  9.7km/h 51% 0.00in /  0mm 694.0 W/m2
10:19 76.6 °F /  24.8 °C 56.7 °F /  13.7 °C 29.84in /  1010.4hPa North 14.1mph /  22.7km/h 14.1mph /  22.7km/h 50% 0.00in /  0mm 737.0 W/m2
10:25 76.8 °F /  24.9 °C 56.3 °F /  13.5 °C 29.85in /  1010.7hPa NNE 4.9mph /  7.9km/h 12.0mph /  19.3km/h 49% 0.00in /  0mm 763.0 W/m2
10:31 77.0 °F /  25 °C 56.3 °F /  13.5 °C 29.84in /  1010.4hPa NNW 6.9mph /  11.1km/h 9.0mph /  14.5km/h 49% 0.00in /  0mm 780.0 W/m2
10:37 77.2 °F /  25.1 °C 55.9 °F /  13.3 °C 29.85in /  1010.7hPa NNE 2.9mph /  4.7km/h 11.0mph /  17.7km/h 48% 0.00in /  0mm 814.0 W/m2
10:43 77.5 °F /  25.3 °C 56.3 °F /  13.5 °C 29.85in /  1010.7hPa NNW 6.9mph /  11.1km/h 9.0mph /  14.5km/h 48% 0.00in /  0mm 868.0 W/m2
10:49 78.1 °F /  25.6 °C 55.6 °F /  13.1 °C 29.85in /  1010.7hPa ENE 6.9mph /  11.1km/h 11.0mph /  17.7km/h 46% 0.00in /  0mm 846.0 W/m2
10:55 78.3 °F /  25.7 °C 55.8 °F /  13.2 °C 29.85in /  1010.7hPa NNW 4.0mph /  6.4km/h 13.0mph /  20.9km/h 46% 0.00in /  0mm 902.0 W/m2
11:01 78.3 °F /  25.7 °C 55.8 °F /  13.2 °C 29.84in /  1010.4hPa NE 4.0mph /  6.4km/h 8.0mph /  12.9km/h 46% 0.00in /  0mm 949.0 W/m2
11:07 78.4 °F /  25.8 °C 55.9 °F /  13.3 °C 29.85in /  1010.7hPa NNE 8.1mph /  13km/h 11.0mph /  17.7km/h 46% 0.00in /  0mm 190.0 W/m2
11:13 78.6 °F /  25.9 °C 56.1 °F /  13.4 °C 29.84in /  1010.4hPa North 8.1mph /  13km/h 11.0mph /  17.7km/h 46% 0.00in /  0mm 1023.0 W/m2
11:19 79.3 °F /  26.3 °C 56.8 °F /  13.8 °C 29.84in /  1010.4hPa North 4.0mph /  6.4km/h 5.0mph /  8km/h 46% 0.00in /  0mm 1074.0 W/m2
11:25 80.4 °F /  26.9 °C 55.9 °F /  13.3 °C 29.84in /  1010.4hPa North 6.0mph /  9.7km/h 9.0mph /  14.5km/h 43% 0.00in /  0mm 953.0 W/m2
11:31 80.4 °F /  26.9 °C 55.9 °F /  13.3 °C 29.84in /  1010.4hPa NE 6.9mph /  11.1km/h 7.0mph /  11.3km/h 43% 0.00in /  0mm 1099.0 W/m2
11:37 80.8 °F /  27.1 °C 55.6 °F /  13.1 °C 29.84in /  1010.4hPa NNW 2.0mph /  3.2km/h 6.0mph /  9.7km/h 42% 0.00in /  0mm 290.0 W/m2
11:43 80.4 °F /  26.9 °C 55.9 °F /  13.3 °C 29.84in /  1010.4hPa NNW 2.0mph /  3.2km/h 5.0mph /  8km/h 43% 0.00in /  0mm 1113.0 W/m2
11:49 80.8 °F /  27.1 °C 55.6 °F /  13.1 °C 29.84in /  1010.4hPa East 2.0mph /  3.2km/h 9.0mph /  14.5km/h 42% 0.00in /  0mm 1100.0 W/m2
11:55 80.8 °F /  27.1 °C 54.9 °F /  12.7 °C 29.83in /  1010hPa NE 6.0mph /  9.7km/h 8.0mph /  12.9km/h 41% 0.00in /  0mm 204.0 W/m2
12:01 80.1 °F /  26.7 °C 54.3 °F /  12.4 °C 29.83in /  1010hPa Calm   3.0mph /  4.8km/h 41% 0.00in /  0mm 323.0 W/m2
12:07 80.2 °F /  26.8 °C 53.1 °F /  11.7 °C 29.83in /  1010hPa NNE 2.9mph /  4.7km/h 9.0mph /  14.5km/h 39% 0.00in /  0mm 1102.0 W/m2
12:13 81.1 °F /  27.3 °C 54.5 °F /  12.5 °C 29.83in /  1010hPa North 4.0mph /  6.4km/h 5.0mph /  8km/h 40% 0.00in /  0mm 267.0 W/m2
12:19 80.8 °F /  27.1 °C 54.1 °F /  12.3 °C 29.83in /  1010hPa Calm   8.0mph /  12.9km/h 40% 0.00in /  0mm 246.0 W/m2
12:25 80.2 °F /  26.8 °C 55.0 °F /  12.8 °C 29.83in /  1010hPa NNW 2.9mph /  4.7km/h 10.0mph /  16.1km/h 42% 0.00in /  0mm 1099.0 W/m2
12:31 81.0 °F /  27.2 °C 54.3 °F /  12.4 °C 29.83in /  1010hPa ENE 4.0mph /  6.4km/h 8.0mph /  12.9km/h 40% 0.00in /  0mm 265.0 W/m2
12:37 81.0 °F /  27.2 °C 54.3 °F /  12.4 °C 29.82in /  1009.7hPa ENE 2.9mph /  4.7km/h 6.0mph /  9.7km/h 40% 0.00in /  0mm 1037.0 W/m2
12:43 81.3 °F /  27.4 °C 53.2 °F /  11.8 °C 29.82in /  1009.7hPa North 4.0mph /  6.4km/h 5.0mph /  8km/h 38% 0.00in /  0mm 1109.0 W/m2
12:49 81.9 °F /  27.7 °C 52.3 °F /  11.3 °C 29.82in /  1009.7hPa East 8.1mph /  13km/h 8.1mph /  13km/h 36% 0.00in /  0mm 1048.0 W/m2
12:55 82.2 °F /  27.9 °C 51.8 °F /  11 °C 29.82in /  1009.7hPa NNW 6.9mph /  11.1km/h 9.0mph /  14.5km/h 35% 0.00in /  0mm 1102.0 W/m2
13:01 82.8 °F /  28.2 °C 54.5 °F /  12.5 °C 29.81in /  1009.4hPa NE 2.9mph /  4.7km/h 6.0mph /  9.7km/h 38% 0.00in /  0mm 1027.0 W/m2
13:07 82.9 °F /  28.3 °C 51.6 °F /  10.9 °C 29.81in /  1009.4hPa North 2.9mph /  4.7km/h 9.0mph /  14.5km/h 34% 0.00in /  0mm 1099.0 W/m2
13:13 83.1 °F /  28.4 °C 51.8 °F /  11 °C 29.81in /  1009.4hPa North 2.9mph /  4.7km/h 11.0mph /  17.7km/h 34% 0.00in /  0mm 1063.0 W/m2
13:19 82.9 °F /  28.3 °C 53.2 °F /  11.8 °C 29.81in /  1009.4hPa East 4.0mph /  6.4km/h 6.0mph /  9.7km/h 36% 0.00in /  0mm 213.0 W/m2
13:25 82.9 °F /  28.3 °C 50.9 °F /  10.5 °C 29.80in /  1009hPa NNE 6.9mph /  11.1km/h 13.0mph /  20.9km/h 33% 0.00in /  0mm 1021.0 W/m2
13:31 83.1 °F /  28.4 °C 52.7 °F /  11.5 °C 29.80in /  1009hPa East 4.0mph /  6.4km/h 8.0mph /  12.9km/h 35% 0.00in /  0mm 1076.0 W/m2
13:37 82.9 °F /  28.3 °C 51.6 °F /  10.9 °C 29.80in /  1009hPa ENE 4.9mph /  7.9km/h 9.0mph /  14.5km/h 34% 0.00in /  0mm 271.0 W/m2
13:43 82.9 °F /  28.3 °C 53.2 °F /  11.8 °C 29.80in /  1009hPa NW 2.0mph /  3.2km/h 7.0mph /  11.3km/h 36% 0.00in /  0mm 1090.0 W/m2
13:49 83.5 °F /  28.6 °C 52.9 °F /  11.6 °C 29.80in /  1009hPa NE 2.9mph /  4.7km/h 11.0mph /  17.7km/h 35% 0.00in /  0mm 244.0 W/m2
13:55 83.5 °F /  28.6 °C 51.4 °F /  10.8 °C 29.80in /  1009hPa North 6.9mph /  11.1km/h 7.0mph /  11.3km/h 33% 0.00in /  0mm 990.0 W/m2
14:01 83.7 °F /  28.7 °C 52.3 °F /  11.3 °C 29.80in /  1009hPa NNE 6.9mph /  11.1km/h 9.0mph /  14.5km/h 34% 0.00in /  0mm 1095.0 W/m2
14:07 83.8 °F /  28.8 °C 51.6 °F /  10.9 °C 29.80in /  1009hPa North 0.9mph /  1.4km/h 7.0mph /  11.3km/h 33% 0.00in /  0mm 1051.0 W/m2
14:13 84.4 °F /  29.1 °C 52.2 °F /  11.2 °C 29.79in /  1008.7hPa Calm   5.0mph /  8km/h 33% 0.00in /  0mm 1046.0 W/m2
14:19 84.7 °F /  29.3 °C 53.2 °F /  11.8 °C 29.79in /  1008.7hPa NNW 2.9mph /  4.7km/h 7.0mph /  11.3km/h 34% 0.00in /  0mm 1051.0 W/m2
14:25 84.9 °F /  29.4 °C 52.5 °F /  11.4 °C 29.79in /  1008.7hPa NNE 2.0mph /  3.2km/h 4.0mph /  6.4km/h 33% 0.00in /  0mm 265.0 W/m2
14:31 84.2 °F /  29 °C 53.6 °F /  12 °C 29.79in /  1008.7hPa NNE 8.9mph /  14.3km/h 9.0mph /  14.5km/h 35% 0.00in /  0mm 290.0 W/m2
14:37 83.5 °F /  28.6 °C 53.8 °F /  12.1 °C 29.78in /  1008.4hPa NNW 6.0mph /  9.7km/h 8.0mph /  12.9km/h 36% 0.00in /  0mm 1009.0 W/m2
14:43 83.7 °F /  28.7 °C 52.3 °F /  11.3 °C 29.78in /  1008.4hPa NE 8.9mph /  14.3km/h 12.0mph /  19.3km/h 34% 0.00in /  0mm 1035.0 W/m2
14:49 83.8 °F /  28.8 °C 51.6 °F /  10.9 °C 29.78in /  1008.4hPa NNW 2.9mph /  4.7km/h 10.0mph /  16.1km/h 33% 0.00in /  0mm 816.0 W/m2
14:55 83.1 °F /  28.4 °C 51.8 °F /  11 °C 29.78in /  1008.4hPa NE 2.0mph /  3.2km/h 9.0mph /  14.5km/h 34% 0.00in /  0mm 179.0 W/m2
15:01 82.9 °F /  28.3 °C 52.5 °F /  11.4 °C 29.78in /  1008.4hPa Calm   4.0mph /  6.4km/h 35% 0.00in /  0mm 274.0 W/m2
15:07 83.7 °F /  28.7 °C 54.0 °F /  12.2 °C 29.78in /  1008.4hPa NE 2.0mph /  3.2km/h 7.0mph /  11.3km/h 36% 0.00in /  0mm 218.0 W/m2
15:13 83.1 °F /  28.4 °C 52.7 °F /  11.5 °C 29.78in /  1008.4hPa Calm   5.0mph /  8km/h 35% 0.00in /  0mm 225.0 W/m2
15:19 82.6 °F /  28.1 °C 52.2 °F /  11.2 °C 29.77in /  1008hPa NNW 0.9mph /  1.4km/h 5.0mph /  8km/h 35% 0.00in /  0mm 309.0 W/m2
15:25 82.2 °F /  27.9 °C 52.5 °F /  11.4 °C 29.77in /  1008hPa Calm   8.0mph /  12.9km/h 36% 0.00in /  0mm 229.0 W/m2
15:31 81.9 °F /  27.7 °C 52.3 °F /  11.3 °C 29.77in /  1008hPa ENE 2.0mph /  3.2km/h 5.0mph /  8km/h 36% 0.00in /  0mm 160.0 W/m2
15:37 81.3 °F /  27.4 °C 54.0 °F /  12.2 °C 29.77in /  1008hPa NE 4.0mph /  6.4km/h 6.0mph /  9.7km/h 39% 0.00in /  0mm 149.0 W/m2
15:43 81.0 °F /  27.2 °C 53.6 °F /  12 °C 29.77in /  1008hPa East 4.0mph /  6.4km/h 8.0mph /  12.9km/h 39% 0.00in /  0mm 160.0 W/m2
15:49 80.2 °F /  26.8 °C 53.8 °F /  12.1 °C 29.77in /  1008hPa ESE 2.0mph /  3.2km/h 7.0mph /  11.3km/h 40% 0.00in /  0mm 199.0 W/m2
15:55 80.1 °F /  26.7 °C 57.4 °F /  14.1 °C 29.77in /  1008hPa Calm   6.0mph /  9.7km/h 46% 0.00in /  0mm 213.0 W/m2
16:01 79.5 °F /  26.4 °C 54.5 °F /  12.5 °C 29.77in /  1008hPa East 0.9mph /  1.4km/h 5.0mph /  8km/h 42% 0.00in /  0mm 269.0 W/m2
16:07 79.3 °F /  26.3 °C 54.3 °F /  12.4 °C 29.77in /  1008hPa NE 2.0mph /  3.2km/h 5.0mph /  8km/h 42% 0.00in /  0mm 185.0 W/m2
16:13 79.2 °F /  26.2 °C 52.7 °F /  11.5 °C 29.77in /  1008hPa Calm   5.0mph /  8km/h 40% 0.00in /  0mm 174.0 W/m2
16:19 79.0 °F /  26.1 °C 53.2 °F /  11.8 °C 29.77in /  1008hPa NNW 0.9mph /  1.4km/h 3.0mph /  4.8km/h 41% 0.00in /  0mm 149.0 W/m2
16:25 79.0 °F /  26.1 °C 54.0 °F /  12.2 °C 29.77in /  1008hPa ENE 4.0mph /  6.4km/h 6.0mph /  9.7km/h 42% 0.00in /  0mm 77.0 W/m2
16:31 78.4 °F /  25.8 °C 52.2 °F /  11.2 °C 29.77in /  1008hPa NE 4.0mph /  6.4km/h 7.0mph /  11.3km/h 40% 0.00in /  0mm 65.0 W/m2
16:37 78.1 °F /  25.6 °C 51.8 °F /  11 °C 29.76in /  1007.7hPa NE 2.9mph /  4.7km/h 8.0mph /  12.9km/h 40% 0.00in /  0mm 62.0 W/m2
16:43 77.5 °F /  25.3 °C 51.3 °F /  10.7 °C 29.76in /  1007.7hPa North 0.9mph /  1.4km/h 3.0mph /  4.8km/h 40% 0.00in /  0mm 67.0 W/m2
16:51 77.4 °F /  25.2 °C 50.5 °F /  10.3 °C 29.76in /  1007.7hPa NNE 2.9mph /  4.7km/h 4.0mph /  6.4km/h 39% 0.00in /  0mm 65.0 W/m2
16:57 77.2 °F /  25.1 °C 49.6 °F /  9.8 °C 29.76in /  1007.7hPa NE 4.0mph /  6.4km/h 7.0mph /  11.3km/h 38% 0.00in /  0mm 79.0 W/m2
17:03 77.2 °F /  25.1 °C 50.4 °F /  10.2 °C 29.76in /  1007.7hPa NE 2.9mph /  4.7km/h 7.0mph /  11.3km/h 39% 0.00in /  0mm 109.0 W/m2
17:09 77.5 °F /  25.3 °C 52.0 °F /  11.1 °C 29.76in /  1007.7hPa Calm   4.0mph /  6.4km/h 41% 0.00in /  0mm 360.0 W/m2
17:15 78.1 °F /  25.6 °C 53.1 °F /  11.7 °C 29.76in /  1007.7hPa NNE 0.9mph /  1.4km/h 4.0mph /  6.4km/h 42% 0.00in /  0mm 79.0 W/m2
17:21 78.1 °F /  25.6 °C 53.1 °F /  11.7 °C 29.76in /  1007.7hPa North 0.9mph /  1.4km/h 3.0mph /  4.8km/h 42% 0.00in /  0mm 292.0 W/m2
17:27 78.4 °F /  25.8 °C 52.2 °F /  11.2 °C 29.77in /  1008hPa Calm   2.0mph /  3.2km/h 40% 0.00in /  0mm 246.0 W/m2
17:33 79.0 °F /  26.1 °C 51.3 °F /  10.7 °C 29.77in /  1008hPa NNW 2.0mph /  3.2km/h 6.0mph /  9.7km/h 38% 0.00in /  0mm 141.0 W/m2
17:40 79.0 °F /  26.1 °C 53.2 °F /  11.8 °C 29.77in /  1008hPa SW 6.0mph /  9.7km/h 6.0mph /  9.7km/h 41% 0.00in /  0mm 116.0 W/m2
17:45 78.1 °F /  25.6 °C 54.3 °F /  12.4 °C 29.78in /  1008.4hPa WSW 0.9mph /  1.4km/h 7.0mph /  11.3km/h 44% 0.00in /  0mm 167.0 W/m2
17:51 77.2 °F /  25.1 °C 54.9 °F /  12.7 °C 29.78in /  1008.4hPa South 0.9mph /  1.4km/h 8.0mph /  12.9km/h 46% 0.00in /  0mm 93.0 W/m2
17:57 76.5 °F /  24.7 °C 54.7 °F /  12.6 °C 29.78in /  1008.4hPa Calm   3.0mph /  4.8km/h 47% 0.00in /  0mm 72.0 W/m2
18:03 76.3 °F /  24.6 °C 54.5 °F /  12.5 °C 29.78in /  1008.4hPa Calm   2.0mph /  3.2km/h 47% 0.00in /  0mm 69.0 W/m2
18:09 75.7 °F /  24.3 °C 54.7 °F /  12.6 °C 29.78in /  1008.4hPa Calm   1.0mph /  1.6km/h 48% 0.00in /  0mm 63.0 W/m2
18:15 75.7 °F /  24.3 °C 54.7 °F /  12.6 °C 29.78in /  1008.4hPa Calm   2.0mph /  3.2km/h 48% 0.00in /  0mm 60.0 W/m2
18:22 75.6 °F /  24.2 °C 54.5 °F /  12.5 °C 29.78in /  1008.4hPa Calm     48% 0.00in /  0mm 51.0 W/m2
18:27 75.6 °F /  24.2 °C 54.0 °F /  12.2 °C 29.78in /  1008.4hPa Calm   1.0mph /  1.6km/h 47% 0.00in /  0mm 42.0 W/m2
18:33 75.7 °F /  24.3 °C 54.7 °F /  12.6 °C 29.78in /  1008.4hPa Calm     48% 0.00in /  0mm 37.0 W/m2
18:39 75.7 °F /  24.3 °C 54.7 °F /  12.6 °C 29.78in /  1008.4hPa Calm   1.0mph /  1.6km/h 48% 0.00in /  0mm 23.0 W/m2
18:45 75.6 °F /  24.2 °C 54.5 °F /  12.5 °C 29.79in /  1008.7hPa Calm   1.0mph /  1.6km/h 48% 0.00in /  0mm 7.0 W/m2
18:52 75.6 °F /  24.2 °C 54.5 °F /  12.5 °C 29.79in /  1008.7hPa Calm     48% 0.00in /  0mm 5.0 W/m2
18:58 75.4 °F /  24.1 °C 54.9 °F /  12.7 °C 29.79in /  1008.7hPa Calm     49% 0.00in /  0mm 0.0 W/m2
19:04 75.0 °F /  23.9 °C 55.6 °F /  13.1 °C 29.80in /  1009hPa Calm   3.0mph /  4.8km/h 51% 0.00in /  0mm 0.0 W/m2
19:10 74.7 °F /  23.7 °C 56.5 °F /  13.6 °C 29.80in /  1009hPa Calm   1.0mph /  1.6km/h 53% 0.00in /  0mm 0.0 W/m2
19:16 74.1 °F /  23.4 °C 55.9 °F /  13.3 °C 29.80in /  1009hPa Calm     53% 0.00in /  0mm 0.0 W/m2
19:22 73.8 °F /  23.2 °C 55.6 °F /  13.1 °C 29.80in /  1009hPa Calm     53% 0.00in /  0mm 0.0 W/m2
19:28 73.6 °F /  23.1 °C 56.5 °F /  13.6 °C 29.81in /  1009.4hPa Calm     55% 0.00in /  0mm 0.0 W/m2
19:34 73.0 °F /  22.8 °C 55.9 °F /  13.3 °C 29.81in /  1009.4hPa Calm   1.0mph /  1.6km/h 55% 0.00in /  0mm 0.0 W/m2
19:40 72.9 °F /  22.7 °C 56.3 °F /  13.5 °C 29.81in /  1009.4hPa Calm   1.0mph /  1.6km/h 56% 0.00in /  0mm 0.0 W/m2
19:46 72.7 °F /  22.6 °C 56.1 °F /  13.4 °C 29.82in /  1009.7hPa Calm     56% 0.00in /  0mm 0.0 W/m2
19:52 72.5 °F /  22.5 °C 55.9 °F /  13.3 °C 29.82in /  1009.7hPa Calm     56% 0.00in /  0mm 0.0 W/m2
19:58 72.1 °F /  22.3 °C 55.6 °F /  13.1 °C 29.83in /  1010hPa Calm     56% 0.00in /  0mm 0.0 W/m2
20:04 72.0 °F /  22.2 °C 55.9 °F /  13.3 °C 29.83in /  1010hPa WSW 2.9mph /  4.7km/h 4.0mph /  6.4km/h 57% 0.00in /  0mm 0.0 W/m2
20:10 71.4 °F /  21.9 °C 55.9 °F /  13.3 °C 29.83in /  1010hPa Calm   2.0mph /  3.2km/h 58% 0.00in /  0mm 0.0 W/m2
20:16 71.2 °F /  21.8 °C 56.1 °F /  13.4 °C 29.83in /  1010hPa Calm   1.0mph /  1.6km/h 59% 0.00in /  0mm 0.0 W/m2
20:22 71.1 °F /  21.7 °C 56.5 °F /  13.6 °C 29.83in /  1010hPa Calm   1.0mph /  1.6km/h 60% 0.00in /  0mm 0.0 W/m2
20:28 70.9 °F /  21.6 °C 56.3 °F /  13.5 °C 29.84in /  1010.4hPa Calm     60% 0.00in /  0mm 0.0 W/m2
20:34 70.5 °F /  21.4 °C 56.5 °F /  13.6 °C 29.84in /  1010.4hPa Calm   2.0mph /  3.2km/h 61% 0.00in /  0mm 0.0 W/m2
20:40 70.3 °F /  21.3 °C 56.7 °F /  13.7 °C 29.84in /  1010.4hPa SSE 0.9mph /  1.4km/h 2.0mph /  3.2km/h 62% 0.00in /  0mm 0.0 W/m2
20:46 70.2 °F /  21.2 °C 57.0 °F /  13.9 °C 29.85in /  1010.7hPa SSE 2.9mph /  4.7km/h 3.0mph /  4.8km/h 63% 0.00in /  0mm 0.0 W/m2
20:52 70.0 °F /  21.1 °C 57.2 °F /  14 °C 29.85in /  1010.7hPa Calm   2.0mph /  3.2km/h 64% 0.00in /  0mm 0.0 W/m2
20:58 70.0 °F /  21.1 °C 57.2 °F /  14 °C 29.85in /  1010.7hPa Calm     64% 0.00in /  0mm 0.0 W/m2
21:04 69.8 °F /  21 °C 57.6 °F /  14.2 °C 29.85in /  1010.7hPa Calm     65% 0.00in /  0mm 0.0 W/m2
21:10 69.6 °F /  20.9 °C 56.8 °F /  13.8 °C 29.85in /  1010.7hPa SE 0.9mph /  1.4km/h 1.0mph /  1.6km/h 64% 0.00in /  0mm 0.0 W/m2
21:17 69.3 °F /  20.7 °C 56.1 °F /  13.4 °C 29.85in /  1010.7hPa Calm   1.0mph /  1.6km/h 63% 0.00in /  0mm 0.0 W/m2
21:23 69.1 °F /  20.6 °C 56.5 °F /  13.6 °C 29.86in /  1011.1hPa Calm   2.0mph /  3.2km/h 64% 0.00in /  0mm 0.0 W/m2
21:29 68.7 °F /  20.4 °C 56.5 °F /  13.6 °C 29.86in /  1011.1hPa East 0.9mph /  1.4km/h 2.0mph /  3.2km/h 65% 0.00in /  0mm 0.0 W/m2
21:35 68.4 °F /  20.2 °C 56.1 °F /  13.4 °C 29.86in /  1011.1hPa Calm   2.0mph /  3.2km/h 65% 0.00in /  0mm 0.0 W/m2
21:41 68.2 °F /  20.1 °C 56.3 °F /  13.5 °C 29.87in /  1011.4hPa NE 0.9mph /  1.4km/h 1.0mph /  1.6km/h 66% 0.00in /  0mm 0.0 W/m2
21:47 67.8 °F /  19.9 °C 56.1 °F /  13.4 °C 29.87in /  1011.4hPa Calm   1.0mph /  1.6km/h 66% 0.00in /  0mm 0.0 W/m2
21:53 67.6 °F /  19.8 °C 55.4 °F /  13 °C 29.87in /  1011.4hPa Calm   1.0mph /  1.6km/h 65% 0.00in /  0mm 0.0 W/m2
21:59 67.5 °F /  19.7 °C 55.2 °F /  12.9 °C 29.87in /  1011.4hPa Calm   1.0mph /  1.6km/h 65% 0.00in /  0mm 0.0 W/m2
22:05 67.3 °F /  19.6 °C 55.6 °F /  13.1 °C 29.87in /  1011.4hPa Calm   1.0mph /  1.6km/h 66% 0.00in /  0mm 0.0 W/m2
22:11 66.9 °F /  19.4 °C 55.6 °F /  13.1 °C 29.88in /  1011.7hPa South 0.9mph /  1.4km/h 1.0mph /  1.6km/h 67% 0.00in /  0mm 0.0 W/m2
22:17 66.7 °F /  19.3 °C 55.8 °F /  13.2 °C 29.88in /  1011.7hPa Calm   2.0mph /  3.2km/h 68% 0.00in /  0mm 0.0 W/m2
22:23 66.6 °F /  19.2 °C 55.6 °F /  13.1 °C 29.88in /  1011.7hPa Calm     68% 0.00in /  0mm 0.0 W/m2
22:29 66.4 °F /  19.1 °C 55.9 °F /  13.3 °C 29.88in /  1011.7hPa Calm     69% 0.00in /  0mm 0.0 W/m2
22:35 66.2 °F /  19 °C 55.8 °F /  13.2 °C 29.88in /  1011.7hPa Calm     69% 0.00in /  0mm 0.0 W/m2
22:41 66.0 °F /  18.9 °C 55.2 °F /  12.9 °C 29.88in /  1011.7hPa Calm   1.0mph /  1.6km/h 68% 0.00in /  0mm 0.0 W/m2
22:47 66.0 °F /  18.9 °C 55.6 °F /  13.1 °C 29.88in /  1011.7hPa Calm     69% 0.00in /  0mm 0.0 W/m2
22:56 66.0 °F /  18.9 °C 55.2 °F /  12.9 °C 29.88in /  1011.7hPa Calm   1.0mph /  1.6km/h 68% 0.00in /  0mm 0.0 W/m2
23:02 65.8 °F /  18.8 °C 54.5 °F /  12.5 °C 29.88in /  1011.7hPa East 0.9mph /  1.4km/h 3.0mph /  4.8km/h 67% 0.00in /  0mm 0.0 W/m2
23:08 65.8 °F /  18.8 °C 54.5 °F /  12.5 °C 29.88in /  1011.7hPa ENE 2.0mph /  3.2km/h 2.0mph /  3.2km/h 67% 0.00in /  0mm 0.0 W/m2
23:14 65.8 °F /  18.8 °C 55.0 °F /  12.8 °C 29.89in /  1012.1hPa Calm   1.0mph /  1.6km/h 68% 0.00in /  0mm 0.0 W/m2
23:20 65.7 °F /  18.7 °C 54.9 °F /  12.7 °C 29.89in /  1012.1hPa Calm   2.0mph /  3.2km/h 68% 0.00in /  0mm 0.0 W/m2
23:26 65.7 °F /  18.7 °C 54.9 °F /  12.7 °C 29.89in /  1012.1hPa Calm   1.0mph /  1.6km/h 68% 0.00in /  0mm 0.0 W/m2
23:32 65.7 °F /  18.7 °C 54.9 °F /  12.7 °C 29.89in /  1012.1hPa Calm     68% 0.00in /  0mm 0.0 W/m2
23:38 65.7 °F /  18.7 °C 54.9 °F /  12.7 °C 29.89in /  1012.1hPa Calm     68% 0.00in /  0mm 0.0 W/m2
23:45 65.7 °F /  18.7 °C 54.3 °F /  12.4 °C 29.89in /  1012.1hPa Calm     67% 0.00in /  0mm 0.0 W/m2
23:51 65.7 °F /  18.7 °C 54.9 °F /  12.7 °C 29.89in /  1012.1hPa Calm     68% 0.00in /  0mm 0.0 W/m2
23:57 65.7 °F /  18.7 °C 54.9 °F /  12.7 °C 29.89in /  1012.1hPa Calm     68% 0.00in /  0mm 0.0 W/m2
Olympia, Windhoek, Namibia
Compliments of Weather Underground - 3 mb